Time;durP1;ratioP1;P1;durP2;ratioP2;P2;SDS_P1;SDS_P2;PMS_P1;PMS_P2;Temp;Humidity;BMP_temperature;BMP_pressure;BME280_temperature;BME280_humidity;BME280_pressure;Samples;Min_cycle;Max_cycle;Signal;HPM_P1;HPM_P2
2023/09/22 00:00:59;;;;;;;;;;;;;;;17.61;62.41;98894.94;4978542;28;7354;-83
2023/09/22 00:03:26;;;;;;;;;;;;;;;17.55;62.59;98892.34;4973849;28;8480;-83
2023/09/22 00:05:52;;;;;;;;;;;;;;;17.49;62.56;98892.41;4962434;28;6888;-83
2023/09/22 00:08:18;;;;;;;;;;;;;;;17.44;62.70;98896.72;4987245;28;7199;-83
2023/09/22 00:10:44;;;;;;;;;;;;;;;17.37;62.47;98892.44;4995036;28;7026;-83
2023/09/22 00:13:09;;;;;;;;;;;;;;;17.30;62.92;98889.00;4982265;28;7320;-84
2023/09/22 00:15:35;;;;;;;;;;;;;;;17.25;63.24;98896.81;4981158;28;7142;-83
2023/09/22 00:18:00;;;;;;;;;;;;;;;17.21;63.08;98895.09;4980652;28;6776;-83
2023/09/22 00:20:26;;;;;;;;;;;;;;;17.17;63.33;98898.53;4969210;28;8402;-82
2023/09/22 00:22:52;;;;;;;;;;;;;;;17.14;63.48;98891.69;4979275;28;8457;-83
2023/09/22 00:25:18;;;;;;;;;;;;;;;17.08;63.47;98892.53;4979409;28;8391;-83
2023/09/22 00:27:44;;;;;;;;;;;;;;;17.07;63.08;98895.97;4960715;28;7147;-83
2023/09/22 00:30:10;;;;;;;;;;;;;;;17.06;63.74;98899.44;4967840;28;8395;-83
2023/09/22 00:32:37;;;;;;;;;;;;;;;17.03;63.36;98902.03;4960982;28;8385;-83
2023/09/22 00:35:03;;;;;;;;;;;;;;;17.01;63.33;98901.19;4965881;28;7442;-83
2023/09/22 00:37:29;;;;;;;;;;;;;;;17.00;63.54;98904.66;4963067;28;8421;-83
2023/09/22 00:39:55;;;;;;;;;;;;;;;16.98;63.45;98915.84;4958663;28;8960;-83
2023/09/22 00:42:22;;;;;;;;;;;;;;;16.98;63.77;98915.84;4978141;28;7123;-83
2023/09/22 00:44:47;;;;;;;;;;;;;;;16.94;63.71;98915.81;4983540;28;6989;-83
2023/09/22 00:47:14;;;;;;;;;;;;;;;16.91;63.30;98918.41;4971182;28;8380;-85
2023/09/22 00:49:40;;;;;;;;;;;;;;;16.89;63.74;98908.94;4959917;28;7026;-87
2023/09/22 00:52:06;;;;;;;;;;;;;;;16.88;63.47;98907.22;4981080;28;7210;-87
2023/09/22 00:54:32;;;;;;;;;;;;;;;16.86;63.70;98917.59;4965525;28;8403;-86
2023/09/22 00:56:58;;;;;;;;;;;;;;;16.84;63.80;98915.84;4984868;28;8586;-86
2023/09/22 00:59:24;;;;;;;;;;;;;;;16.81;63.52;98911.53;4983598;28;8352;-87
2023/09/22 01:01:50;;;;;;;;;;;;;;;16.78;63.63;98908.97;4965034;28;8376;-87
2023/09/22 01:04:19;;;;;;;;;;;;;;;16.76;63.66;98916.72;4996112;28;6829;-87
2023/09/22 01:06:46;;;;;;;;;;;;;;;16.74;63.28;98913.28;4967516;28;8501;-87
2023/09/22 01:09:14;;;;;;;;;;;;;;;16.73;63.44;98921.03;4961470;28;7184;-86
2023/09/22 01:11:39;;;;;;;;;;;;;;;16.70;64.26;98915.88;4985936;28;8765;-86
2023/09/22 01:14:05;;;;;;;;;;;;;;;16.69;64.00;98920.16;4984980;28;8491;-88
2023/09/22 01:16:31;;;;;;;;;;;;;;;16.69;63.73;98914.16;4984313;28;6808;-87
2023/09/22 01:18:57;;;;;;;;;;;;;;;16.66;63.84;98921.06;4971635;28;8407;-87
2023/09/22 01:21:30;;;;;;;;;;;;;;;16.65;63.74;98924.47;4979508;28;8426;-87
2023/09/22 01:23:57;;;;;;;;;;;;;;;16.66;63.65;98922.75;4967409;28;7519;-85
2023/09/22 01:26:23;;;;;;;;;;;;;;;16.64;64.07;98917.56;4966930;28;7193;-87
2023/09/22 01:28:49;;;;;;;;;;;;;;;16.63;64.11;98917.59;4967614;28;6987;-87
2023/09/22 01:31:16;;;;;;;;;;;;;;;16.61;63.83;98907.25;4982632;28;8722;-86
2023/09/22 01:33:42;;;;;;;;;;;;;;;16.60;63.53;98900.34;4970019;28;7638;-89
2023/09/22 01:36:08;;;;;;;;;;;;;;;16.58;64.01;98902.09;4984236;28;8413;-85
2023/09/22 01:38:34;;;;;;;;;;;;;;;16.59;63.91;98902.94;4972758;28;8448;-86
2023/09/22 01:40:59;;;;;;;;;;;;;;;16.57;63.74;98908.13;4968451;28;7329;-86
2023/09/22 01:43:25;;;;;;;;;;;;;;;16.57;63.76;98899.50;4985167;28;7255;-87
2023/09/22 01:45:51;;;;;;;;;;;;;;;16.56;63.44;98908.97;4984025;28;6966;-86
2023/09/22 01:48:17;;;;;;;;;;;;;;;16.53;63.71;98903.78;4958891;28;8576;-85
2023/09/22 01:50:42;;;;;;;;;;;;;;;16.51;63.80;98901.22;4989566;28;6943;-87
2023/09/22 01:53:10;;;;;;;;;;;;;;;16.48;63.19;98902.94;4969507;28;7126;-88
2023/09/22 01:55:39;;;;;;;;;;;;;;;16.45;63.49;98905.50;4969355;28;8170;-83
2023/09/22 01:58:07;;;;;;;;;;;;;;;16.44;63.56;98909.84;4966729;28;7320;-84
2023/09/22 02:00:33;;;;;;;;;;;;;;;16.43;63.88;98902.94;4961236;28;8454;-84
2023/09/22 02:02:59;;;;;;;;;;;;;;;16.43;63.53;98902.94;4967932;28;7663;-82
2023/09/22 02:05:24;;;;;;;;;;;;;;;16.41;63.68;98899.47;4984915;28;7169;-83
2023/09/22 02:07:50;;;;;;;;;;;;;;;16.40;63.72;98910.69;4967703;28;7159;-84
2023/09/22 02:10:16;;;;;;;;;;;;;;;16.38;63.40;98907.25;4960779;28;7863;-83
2023/09/22 02:12:44;;;;;;;;;;;;;;;16.38;63.69;98915.00;4981844;28;8400;-82
2023/09/22 02:15:10;;;;;;;;;;;;;;;16.35;63.59;98915.00;4982910;28;6985;-82
2023/09/22 02:17:40;;;;;;;;;;;;;;;16.38;63.69;98922.75;4968321;28;7261;-83
2023/09/22 02:20:18;;;;;;;;;;;;;;;16.37;63.51;98921.03;4968618;28;8858;-82
2023/09/22 02:22:45;;;;;;;;;;;;;;;16.37;63.97;98918.44;4968929;28;8458;-82
2023/09/22 02:25:15;;;;;;;;;;;;;;;16.38;63.50;98915.88;4965682;28;8465;-83
2023/09/22 02:27:41;;;;;;;;;;;;;;;16.38;63.64;98910.72;4968413;28;8337;-82
2023/09/22 02:30:08;;;;;;;;;;;;;;;16.42;63.59;98905.53;4975613;28;7277;-82
2023/09/22 02:32:34;;;;;;;;;;;;;;;16.46;63.69;98902.06;4968172;28;8486;-83
2023/09/22 02:35:00;;;;;;;;;;;;;;;16.47;63.27;98899.50;4977181;28;8967;-83
2023/09/22 02:37:25;;;;;;;;;;;;;;;16.52;63.34;98913.28;4972914;28;6846;-83
2023/09/22 02:39:51;;;;;;;;;;;;;;;16.58;63.70;98911.56;4991420;28;6962;-84
2023/09/22 02:42:17;;;;;;;;;;;;;;;16.64;63.47;98908.97;4962812;28;6994;-82
2023/09/22 02:44:42;;;;;;;;;;;;;;;16.69;63.15;98907.22;4965588;28;8465;-82
2023/09/22 02:47:08;;;;;;;;;;;;;;;16.74;63.20;98912.41;4966127;28;7248;-83
2023/09/22 02:49:33;;;;;;;;;;;;;;;16.77;63.29;98917.59;4965172;28;7277;-82
2023/09/22 02:51:59;;;;;;;;;;;;;;;16.75;62.54;98917.59;4990308;28;6795;-82
2023/09/22 02:54:24;;;;;;;;;;;;;;;16.75;62.94;98915.00;4961688;28;8409;-83
2023/09/22 02:56:50;;;;;;;;;;;;;;;16.73;62.20;98921.91;4982132;28;6986;-82
2023/09/22 02:59:15;;;;;;;;;;;;;;;16.70;62.17;98921.03;4993279;28;6950;-83
2023/09/22 03:01:41;;;;;;;;;;;;;;;16.67;62.58;98927.06;4995134;28;8407;-83
2023/09/22 03:04:10;;;;;;;;;;;;;;;16.64;62.71;98922.75;4978321;28;8627;-82
2023/09/22 03:06:36;;;;;;;;;;;;;;;16.59;62.68;98921.03;4999233;28;7384;-84
2023/09/22 03:09:09;;;;;;;;;;;;;;;16.58;62.78;98916.72;4965765;28;6897;-83
2023/09/22 03:11:35;;;;;;;;;;;;;;;16.54;62.54;98920.19;4981472;28;8655;-83
2023/09/22 03:14:01;;;;;;;;;;;;;;;16.52;62.86;98918.47;4974458;28;6972;-83
2023/09/22 03:16:27;;;;;;;;;;;;;;;16.51;63.00;98916.75;4979135;28;8736;-84
2023/09/22 03:18:52;;;;;;;;;;;;;;;16.53;62.62;98921.91;4982318;28;6839;-83
2023/09/22 03:21:22;;;;;;;;;;;;;;;16.55;62.47;98914.16;4983624;28;7179;-84
2023/09/22 03:23:49;;;;;;;;;;;;;;;16.59;62.38;98913.28;4982149;28;7313;-84
2023/09/22 03:26:15;;;;;;;;;;;;;;;16.62;63.03;98906.38;4971478;28;7026;-84
2023/09/22 03:28:41;;;;;;;;;;;;;;;16.71;63.06;98912.41;4989735;28;7044;-85
2023/09/22 03:31:06;;;;;;;;;;;;;;;16.76;63.02;98916.72;4992080;28;6796;-85
2023/09/22 03:33:32;;;;;;;;;;;;;;;16.85;62.77;98913.28;4970814;28;7216;-85
2023/09/22 03:35:57;;;;;;;;;;;;;;;16.92;62.33;98909.78;4981374;28;6998;-85
2023/09/22 03:38:23;;;;;;;;;;;;;;;16.97;62.83;98920.13;4973145;28;8421;-85
2023/09/22 03:40:48;;;;;;;;;;;;;;;17.04;62.95;98929.66;4965060;23;7166;-87
2023/09/22 03:43:14;;;;;;;;;;;;;;;17.08;62.01;98923.59;4936047;28;8440;-86
2023/09/22 03:45:39;;;;;;;;;;;;;;;17.12;62.49;98927.03;4941132;28;6980;-85
2023/09/22 03:48:05;;;;;;;;;;;;;;;17.18;61.94;98923.56;4942565;28;8448;-85
2023/09/22 03:50:31;;;;;;;;;;;;;;;17.21;62.08;98928.75;4943127;28;6960;-85
2023/09/22 03:52:56;;;;;;;;;;;;;;;17.22;61.95;98927.88;4940839;28;6839;-85
2023/09/22 03:55:22;;;;;;;;;;;;;;;17.24;61.74;98930.44;4933338;28;8416;-85
2023/09/22 03:57:48;;;;;;;;;;;;;;;17.23;61.98;98932.19;4951873;28;7192;-85
2023/09/22 04:00:24;;;;;;;;;;;;;;;17.24;61.77;98936.50;4952681;28;7239;-85
2023/09/22 04:02:50;;;;;;;;;;;;;;;17.19;61.44;98920.97;4924711;29;11580;-85
2023/09/22 04:05:15;;;;;;;;;;;;;;;17.18;61.36;98932.22;4918464;28;7015;-85
2023/09/22 04:07:41;;;;;;;;;;;;;;;17.14;61.23;98932.22;4933035;28;6847;-84
2023/09/22 04:10:08;;;;;;;;;;;;;;;17.08;61.40;98938.28;4936227;28;6851;-87
2023/09/22 04:12:35;;;;;;;;;;;;;;;17.03;61.89;98940.88;4927277;28;6846;-86
2023/09/22 04:17:33;;;;;;;;;;;;;;;16.98;61.89;98939.13;4955339;28;6933;-75
2023/09/22 04:19:59;;;;;;;;;;;;;;;16.94;61.74;98949.47;4940309;28;6784;-76
2023/09/22 04:22:24;;;;;;;;;;;;;;;16.91;61.98;98946.88;4938613;28;7046;-75
2023/09/22 04:24:58;;;;;;;;;;;;;;;16.87;61.26;98950.34;4968764;28;7348;-74
2023/09/22 04:27:28;;;;;;;;;;;;;;;16.84;61.70;98950.34;4963897;28;7301;-75
2023/09/22 04:29:54;;;;;;;;;;;;;;;16.79;61.39;98947.75;4975669;28;6832;-74
2023/09/22 04:32:21;;;;;;;;;;;;;;;16.75;61.56;98958.97;4964426;28;6975;-75
2023/09/22 04:34:48;;;;;;;;;;;;;;;16.71;61.96;98965.03;4979112;28;6816;-74
2023/09/22 04:37:15;;;;;;;;;;;;;;;16.69;61.72;98966.72;4975931;28;6867;-75
2023/09/22 04:39:40;;;;;;;;;;;;;;;16.66;61.96;98971.91;4977965;28;6820;-75
2023/09/22 04:42:06;;;;;;;;;;;;;;;16.62;61.75;98960.69;4967475;28;6804;-75
2023/09/22 04:44:32;;;;;;;;;;;;;;;16.60;62.03;98961.53;4951076;28;7188;-75
2023/09/22 04:47:00;;;;;;;;;;;;;;;16.58;62.03;98964.16;4970534;28;6976;-75
2023/09/22 04:49:25;;;;;;;;;;;;;;;16.57;62.33;98966.72;4949380;28;6935;-75
2023/09/22 04:51:51;;;;;;;;;;;;;;;16.56;61.87;98970.19;4948870;28;6776;-74
2023/09/22 04:54:18;;;;;;;;;;;;;;;16.55;62.07;98974.47;4938353;28;7081;-75
2023/09/22 04:56:45;;;;;;;;;;;;;;;16.54;62.08;98977.09;4981804;23;7046;-81
2023/09/22 04:59:10;;;;;;;;;;;;;;;16.53;61.94;98978.78;4960284;28;8275;-86
2023/09/22 05:01:36;;;;;;;;;;;;;;;16.52;62.07;98974.47;4972368;28;6962;-86
2023/09/22 05:04:02;;;;;;;;;;;;;;;16.50;61.78;98977.06;4974873;28;6815;-86
2023/09/22 05:06:28;;;;;;;;;;;;;;;16.46;61.54;98970.19;4959105;28;8514;-86
2023/09/22 05:08:54;;;;;;;;;;;;;;;16.44;61.68;98968.44;4976580;28;6796;-86
2023/09/22 05:11:20;;;;;;;;;;;;;;;16.45;62.57;98973.63;4955773;28;7226;-86
2023/09/22 05:13:46;;;;;;;;;;;;;;;16.46;62.44;98969.28;4972926;28;7032;-86
2023/09/22 05:16:15;;;;;;;;;;;;;;;16.48;62.25;98983.13;4974642;28;8388;-86
2023/09/22 05:18:40;;;;;;;;;;;;;;;16.48;62.60;99002.06;4971131;28;8476;-86
2023/09/22 05:21:09;;;;;;;;;;;;;;;16.51;62.38;99003.78;4974328;28;7126;-86
2023/09/22 05:23:35;;;;;;;;;;;;;;;16.50;62.54;99009.84;4971918;28;8470;-86
2023/09/22 05:26:07;;;;;;;;;;;;;;;16.52;62.27;99010.69;4945685;28;7073;-84
2023/09/22 05:28:33;;;;;;;;;;;;;;;16.54;62.43;99014.13;4974745;28;7165;-85
2023/09/22 05:30:59;;;;;;;;;;;;;;;16.57;62.74;99015.88;4963458;28;7013;-84
2023/09/22 05:33:25;;;;;;;;;;;;;;;16.62;62.66;99016.75;4976102;28;8462;-85
2023/09/22 05:35:50;;;;;;;;;;;;;;;16.64;62.53;99020.19;4969816;28;7205;-85
2023/09/22 05:38:19;;;;;;;;;;;;;;;16.64;62.17;99020.19;4976876;28;6960;-84
2023/09/22 05:40:45;;;;;;;;;;;;;;;16.64;62.36;99015.88;4976385;28;7254;-85
2023/09/22 05:43:13;;;;;;;;;;;;;;;16.64;62.55;99012.44;4972950;28;8429;-85
2023/09/22 05:45:39;;;;;;;;;;;;;;;16.63;61.77;99016.72;4956248;28;8486;-84
2023/09/22 05:48:07;;;;;;;;;;;;;;;16.62;62.03;99029.69;4976405;23;7434;-85
2023/09/22 05:50:36;;;;;;;;;;;;;;;16.62;62.02;99027.94;5034650;28;7100;-84
2023/09/22 05:53:05;;;;;;;;;;;;;;;16.63;61.79;99028.81;5019957;28;6975;-85
2023/09/22 05:55:33;;;;;;;;;;;;;;;16.65;62.18;99040.88;5018850;28;7163;-87
2023/09/22 05:58:01;;;;;;;;;;;;;;;16.66;62.23;99044.34;5022977;28;6994;-85
2023/09/22 06:00:39;;;;;;;;;;;;;;;16.65;61.98;99040.03;5013509;28;7573;-85
2023/09/22 06:03:08;;;;;;;;;;;;;;;16.64;61.81;99041.72;4996569;28;6846;-85
2023/09/22 06:05:33;;;;;;;;;;;;;;;16.65;62.28;99043.47;4998796;23;7484;-76
2023/09/22 06:07:59;;;;;;;;;;;;;;;16.67;62.26;99043.47;4978782;28;6870;-76
2023/09/22 06:10:25;;;;;;;;;;;;;;;16.68;62.38;99045.19;4960584;28;7054;-76
2023/09/22 06:12:50;;;;;;;;;;;;;;;16.71;62.04;99040.03;4981966;28;6868;-74
2023/09/22 06:15:16;;;;;;;;;;;;;;;16.74;61.97;99042.63;4980633;28;7739;-75
2023/09/22 06:17:42;;;;;;;;;;;;;;;16.78;61.83;99043.50;4973323;28;6848;-76
2023/09/22 06:20:09;;;;;;;;;;;;;;;16.82;61.34;99049.53;4981237;28;7272;-76
2023/09/22 06:22:35;;;;;;;;;;;;;;;16.85;61.99;99053.00;4962426;28;6969;-75
2023/09/22 06:25:00;;;;;;;;;;;;;;;16.89;61.81;99052.13;4983843;28;7002;-76
2023/09/22 06:27:26;;;;;;;;;;;;;;;16.93;61.76;99048.66;4981400;28;6971;-75
2023/09/22 06:29:51;;;;;;;;;;;;;;;16.99;62.17;99054.72;4973057;28;7868;-75
2023/09/22 06:32:19;;;;;;;;;;;;;;;17.06;61.95;99054.75;4993483;28;7383;-75
2023/09/22 06:34:45;;;;;;;;;;;;;;;17.14;61.93;99059.94;4998029;28;6803;-77
2023/09/22 06:37:10;;;;;;;;;;;;;;;17.24;61.89;99060.78;4987701;28;6979;-75
2023/09/22 06:39:36;;;;;;;;;;;;;;;17.30;61.49;99067.69;4987013;28;6867;-77
2023/09/22 06:42:02;;;;;;;;;;;;;;;17.37;62.32;99060.75;4988182;28;7153;-75
2023/09/22 06:44:27;;;;;;;;;;;;;;;17.43;61.52;99058.16;5003412;28;7462;-76
2023/09/22 06:46:53;;;;;;;;;;;;;;;17.53;61.73;99059.00;5012322;28;7489;-75
2023/09/22 06:49:19;;;;;;;;;;;;;;;17.65;61.69;99066.78;4976878;28;6940;-75
2023/09/22 06:51:44;;;;;;;;;;;;;;;17.77;61.74;99065.88;5013775;28;6935;-75
2023/09/22 06:54:10;;;;;;;;;;;;;;;17.92;61.77;99064.97;4998348;28;7841;-75
2023/09/22 06:56:36;;;;;;;;;;;;;;;18.05;61.56;99073.56;4994183;28;6803;-75
2023/09/22 06:59:02;;;;;;;;;;;;;;;18.17;61.19;99072.66;4989393;28;7376;-75
2023/09/22 07:01:28;;;;;;;;;;;;;;;18.29;61.16;99071.75;4990187;28;7080;-76
2023/09/22 07:03:53;;;;;;;;;;;;;;;18.41;60.84;99071.69;5000425;28;6855;-77
2023/09/22 07:06:19;;;;;;;;;;;;;;;18.55;60.63;99075.94;4967372;28;6946;-74
2023/09/22 07:08:46;;;;;;;;;;;;;;;18.68;60.27;99075.00;4967303;28;6807;-75
2023/09/22 07:11:13;;;;;;;;;;;;;;;18.78;59.69;99080.97;4969745;28;7182;-75
2023/09/22 07:13:40;;;;;;;;;;;;;;;18.83;59.11;99078.34;4971570;28;7333;-75
2023/09/22 07:16:06;;;;;;;;;;;;;;;18.79;59.24;99082.72;4987163;28;7150;-74
2023/09/22 07:18:32;;;;;;;;;;;;;;;18.73;58.81;99088.81;4971354;28;6796;-75
2023/09/22 07:20:57;;;;;;;;;;;;;;;18.66;58.50;99094.91;4989675;28;6792;-75
2023/09/22 07:23:24;;;;;;;;;;;;;;;18.60;58.62;99097.53;4981868;28;7116;-75
2023/09/22 07:26:15;;;;;;;;;;;;;;;18.53;58.51;99095.81;4979271;28;6952;-76
2023/09/22 07:28:41;;;;;;;;;;;;;;;18.51;58.64;99097.56;4977013;28;7251;-75
2023/09/22 07:31:11;;;;;;;;;;;;;;;18.49;58.39;99089.78;4973145;28;6958;-75
2023/09/22 07:33:37;;;;;;;;;;;;;;;18.51;58.11;99102.75;4992035;28;6843;-75
2023/09/22 07:36:02;;;;;;;;;;;;;;;18.50;57.98;99099.31;4978296;28;6792;-75
2023/09/22 07:38:29;;;;;;;;;;;;;;;18.53;58.03;99107.06;4974597;28;7757;-75
2023/09/22 07:40:54;;;;;;;;;;;;;;;18.56;58.21;99098.44;4992466;28;7186;-75
2023/09/22 07:43:20;;;;;;;;;;;;;;;18.60;58.28;99102.72;4978525;28;8396;-75
2023/09/22 07:45:47;;;;;;;;;;;;;;;18.67;58.53;99109.59;4984864;28;6977;-75
2023/09/22 07:48:13;;;;;;;;;;;;;;;18.79;58.23;99103.47;4973055;28;6961;-75
2023/09/22 07:50:39;;;;;;;;;;;;;;;18.94;58.03;99112.91;4989885;28;6772;-76
2023/09/22 07:53:05;;;;;;;;;;;;;;;19.11;58.35;99119.72;4988394;28;7016;-75
2023/09/22 07:55:31;;;;;;;;;;;;;;;19.26;57.71;99121.31;4973893;28;6804;-75
2023/09/22 07:57:57;;;;;;;;;;;;;;;19.34;57.17;99116.09;4971025;28;6954;-77
2023/09/22 08:00:26;;;;;;;;;;;;;;;19.35;56.61;99112.63;4990329;28;6952;-75
2023/09/22 08:02:52;;;;;;;;;;;;;;;19.36;56.90;99103.94;4981038;28;7093;-75
2023/09/22 08:05:18;;;;;;;;;;;;;;;19.36;56.38;99115.22;4990625;28;7341;-76
2023/09/22 08:07:49;;;;;;;;;;;;;;;19.38;56.65;99113.44;4980689;28;7105;-76
2023/09/22 08:10:15;;;;;;;;;;;;;;;19.37;56.37;99116.06;4962610;28;7181;-76
2023/09/22 08:12:41;;;;;;;;;;;;;;;19.33;55.56;99109.19;4972559;28;7878;-76
2023/09/22 08:15:08;;;;;;;;;;;;;;;19.27;55.76;99107.50;4981269;28;7125;-75
2023/09/22 08:17:34;;;;;;;;;;;;;;;19.21;55.85;99110.97;5011839;23;6989;-77
2023/09/22 08:20:00;;;;;;;;;;;;;;;19.17;56.05;99109.28;5013239;28;6819;-74
2023/09/22 08:22:26;;;;;;;;;;;;;;;19.12;55.56;99111.03;5013093;28;8996;-76
2023/09/22 08:24:52;;;;;;;;;;;;;;;19.09;56.05;99114.56;5010293;28;6999;-76
2023/09/22 08:27:18;;;;;;;;;;;;;;;19.07;55.19;99112.84;5017831;28;6803;-77
2023/09/22 08:29:43;;;;;;;;;;;;;;;19.06;55.97;99111.94;5020051;28;7138;-75
2023/09/22 08:32:09;;;;;;;;;;;;;;;19.10;55.49;99115.41;5012440;28;6788;-76
2023/09/22 08:34:35;;;;;;;;;;;;;;;19.11;56.14;99110.19;5009924;28;6954;-75
2023/09/22 08:37:01;;;;;;;;;;;;;;;19.15;56.23;99117.09;5014959;28;7268;-75
2023/09/22 08:39:26;;;;;;;;;;;;;;;19.21;56.00;99125.72;4997827;28;6995;-76
2023/09/22 08:41:52;;;;;;;;;;;;;;;19.26;55.75;99117.00;5013402;28;6977;-76
2023/09/22 08:44:19;;;;;;;;;;;;;;;19.34;55.59;99129.06;5028152;28;7246;-76
2023/09/22 08:46:45;;;;;;;;;;;;;;;19.42;55.13;99135.91;4999582;28;6894;-75
2023/09/22 08:49:11;;;;;;;;;;;;;;;19.51;55.52;99132.41;5009278;28;6800;-75
2023/09/22 08:51:36;;;;;;;;;;;;;;;19.67;55.65;99134.84;4997077;28;7189;-76
2023/09/22 08:54:02;;;;;;;;;;;;;;;19.83;55.07;99120.81;4994076;28;7050;-76
2023/09/22 08:56:28;;;;;;;;;;;;;;;20.01;54.97;99131.94;5011255;28;7209;-76
2023/09/22 08:58:53;;;;;;;;;;;;;;;20.12;54.60;99127.47;5008182;28;6949;-76
2023/09/22 09:01:19;;;;;;;;;;;;;;;20.19;54.17;99117.00;5006042;28;6812;-77
2023/09/22 09:03:45;;;;;;;;;;;;;;;20.22;54.00;99122.16;5004487;28;6964;-75
2023/09/22 09:06:14;;;;;;;;;;;;;;;20.26;53.97;99118.63;5019090;28;6788;-76
2023/09/22 09:08:39;;;;;;;;;;;;;;;20.34;53.74;99118.56;5017408;28;7469;-75
2023/09/22 09:11:07;;;;;;;;;;;;;;;20.38;53.04;99115.00;5039463;28;6867;-75
2023/09/22 09:13:34;;;;;;;;;;;;;;;20.39;53.07;99115.00;5020392;28;6977;-75
2023/09/22 09:16:05;;;;;;;;;;;;;;;20.40;52.86;99119.31;5016801;28;6875;-76
2023/09/22 09:18:31;;;;;;;;;;;;;;;20.36;52.88;99107.22;5003385;28;6995;-76
2023/09/22 09:21:11;;;;;;;;;;;;;;;20.35;52.54;99113.31;5014423;28;7051;-76
2023/09/22 09:23:38;;;;;;;;;;;;;;;20.33;52.84;99109.88;5004322;28;6998;-76
2023/09/22 09:26:03;;;;;;;;;;;;;;;20.37;52.98;99113.28;5007831;28;7002;-75
2023/09/22 09:28:29;;;;;;;;;;;;;;;20.43;52.98;99117.56;4983825;28;6968;-76
2023/09/22 09:30:59;;;;;;;;;;;;;;;20.49;52.56;99114.88;5012294;28;6799;-75
2023/09/22 09:33:30;;;;;;;;;;;;;;;20.53;52.08;99112.22;5018471;28;6867;-77
2023/09/22 09:35:58;;;;;;;;;;;;;;;20.57;51.46;99122.59;5013285;28;7250;-75
2023/09/22 09:38:29;;;;;;;;;;;;;;;20.57;50.32;99118.25;4996830;28;6973;-76
2023/09/22 09:40:56;;;;;;;;;;;;;;;20.59;49.67;99121.69;5005569;28;7022;-75
2023/09/22 09:43:22;;;;;;;;;;;;;;;20.61;49.72;99119.03;5023396;28;7136;-75
2023/09/22 09:45:59;;;;;;;;;;;;;;;20.64;49.52;99117.25;5022504;28;6998;-75
2023/09/22 09:48:25;;;;;;;;;;;;;;;20.69;48.72;99130.22;5018787;28;7018;-75
2023/09/22 09:51:01;;;;;;;;;;;;;;;20.74;49.00;99115.41;4999692;28;6983;-76
2023/09/22 09:53:37;;;;;;;;;;;;;;;20.84;48.50;99116.16;5011138;28;6823;-76
2023/09/22 09:56:05;;;;;;;;;;;;;;;20.95;48.31;99119.44;5005313;28;6958;-75
2023/09/22 09:58:33;;;;;;;;;;;;;;;21.10;48.82;99112.28;5016389;28;6984;-76
2023/09/22 10:01:01;;;;;;;;;;;;;;;21.29;48.32;99112.84;5016992;28;6815;-76
2023/09/22 10:03:27;;;;;;;;;;;;;;;21.47;48.19;99122.09;5015406;28;6800;-76
2023/09/22 10:05:55;;;;;;;;;;;;;;;21.69;48.47;99113.94;5013080;28;7006;-75
2023/09/22 10:08:22;;;;;;;;;;;;;;;21.89;47.87;99128.34;5011464;28;7307;-76
2023/09/22 10:10:53;;;;;;;;;;;;;;;21.95;47.23;99123.03;5010309;28;6991;-76
2023/09/22 10:13:19;;;;;;;;;;;;;;;21.93;46.37;99130.03;5008232;28;6812;-76
2023/09/22 10:15:59;;;;;;;;;;;;;;;21.98;45.81;99120.34;5007457;28;6784;-76
2023/09/22 10:18:49;;;;;;;;;;;;;;;22.14;45.33;99118.28;5008068;28;6988;-75
2023/09/22 10:21:34;;;;;;;;;;;;;;;22.54;45.53;99126.19;5010194;28;7221;-76
2023/09/22 10:24:23;;;;;;;;;;;;;;;23.46;44.58;99126.72;4990571;28;7244;-76
2023/09/22 10:27:06;;;;;;;;;;;;;;;24.37;44.09;99123.41;5007285;28;6820;-76
2023/09/22 10:29:37;;;;;;;;;;;;;;;25.33;41.93;99123.09;5012355;28;6829;-76
2023/09/22 10:32:15;;;;;;;;;;;;;;;26.07;40.42;99116.16;5009416;28;7048;-76
2023/09/22 10:34:47;;;;;;;;;;;;;;;26.27;39.79;99114.59;5024074;28;7150;-78
2023/09/22 10:37:18;;;;;;;;;;;;;;;26.66;39.00;99123.66;4995503;28;7377;-76
2023/09/22 10:39:51;;;;;;;;;;;;;;;27.31;38.48;99124.56;5015376;28;6997;-75
2023/09/22 10:42:17;;;;;;;;;;;;;;;28.05;38.06;99124.97;4996260;28;8558;-77
2023/09/22 10:44:58;;;;;;;;;;;;;;;28.88;37.91;99119.44;5002589;28;6971;-78
2023/09/22 10:47:44;;;;;;;;;;;;;;;29.47;36.41;99123.63;5004971;28;7225;-77
2023/09/22 10:50:17;;;;;;;;;;;;;;;30.00;35.71;99128.84;5003502;28;7032;-77
2023/09/22 10:53:07;;;;;;;;;;;;;;;30.45;34.82;99118.53;5000956;28;6988;-79
2023/09/22 10:55:44;;;;;;;;;;;;;;;30.92;33.96;99121.25;5003278;28;7357;-79
2023/09/22 10:58:11;;;;;;;;;;;;;;;31.17;33.09;99126.81;4982711;28;7079;-79
2023/09/22 11:00:42;;;;;;;;;;;;;;;31.23;32.09;99135.34;5000576;28;7349;-78
2023/09/22 11:03:11;;;;;;;;;;;;;;;31.15;31.83;99130.53;5001011;28;7117;-79
2023/09/22 11:05:43;;;;;;;;;;;;;;;31.29;32.03;99140.31;5017988;28;7155;-75
2023/09/22 11:08:22;;;;;;;;;;;;;;;31.57;31.68;99131.59;5021931;28;7222;-80
2023/09/22 11:10:53;;;;;;;;;;;;;;;31.79;31.75;99140.03;4982453;28;6865;-79
2023/09/22 11:13:19;;;;;;;;;;;;;;;31.93;30.82;99139.22;5004075;28;6977;-79
2023/09/22 11:15:56;;;;;;;;;;;;;;;32.03;30.69;99137.72;4991525;28;7205;-79
2023/09/22 11:18:25;;;;;;;;;;;;;;;31.86;29.73;99144.03;4988138;28;7002;-80
2023/09/22 11:21:04;;;;;;;;;;;;;;;31.58;30.31;99145.66;5008439;28;6856;-77
2023/09/22 11:23:31;;;;;;;;;;;;;;;31.65;30.91;99147.00;5007690;28;6820;-76
2023/09/22 11:26:05;;;;;;;;;;;;;;;32.05;30.10;99140.25;5015244;28;6825;-77
2023/09/22 11:28:31;;;;;;;;;;;;;;;32.20;29.97;99143.75;5012913;28;6871;-79
2023/09/22 11:31:11;;;;;;;;;;;;;;;32.45;29.80;99145.75;5009991;28;7224;-78
2023/09/22 11:33:37;;;;;;;;;;;;;;;32.80;28.92;99142.63;4996380;28;7476;-77
2023/09/22 11:36:03;;;;;;;;;;;;;;;33.19;28.22;99147.25;5010991;28;7068;-78
2023/09/22 11:38:31;;;;;;;;;;;;;;;33.00;27.59;99145.81;4991122;28;7104;-76
2023/09/22 11:41:14;;;;;;;;;;;;;;;32.55;27.81;99157.47;4994519;28;7083;-78
2023/09/22 11:43:59;;;;;;;;;;;;;;;32.64;27.69;99150.72;5016596;28;7236;-79
2023/09/22 11:46:27;;;;;;;;;;;;;;;32.64;27.10;99150.72;5009905;28;6978;-76
2023/09/22 11:49:02;;;;;;;;;;;;;;;32.57;27.08;99156.53;5013611;28;7028;-78
2023/09/22 11:51:40;;;;;;;;;;;;;;;32.52;27.11;99152.34;5009516;28;6988;-77
2023/09/22 11:54:06;;;;;;;;;;;;;;;32.42;26.81;99146.81;5004708;28;7564;-76
2023/09/22 11:56:32;;;;;;;;;;;;;;;32.26;26.46;99152.19;5006830;28;7144;-77
2023/09/22 11:59:08;;;;;;;;;;;;;;;32.07;27.16;99154.28;4999925;28;7157;-75
2023/09/22 12:01:35;;;;;;;;;;;;;;;31.93;26.83;99155.97;5009976;28;7026;-78
2023/09/22 12:04:01;;;;;;;;;;;;;;;31.88;26.88;99163.34;5016564;28;6978;-74
2023/09/22 12:06:26;;;;;;;;;;;;;;;31.96;27.23;99161.06;5014808;28;7190;-77
2023/09/22 12:08:52;;;;;;;;;;;;;;;32.19;27.22;99152.66;5010192;28;7824;-78
2023/09/22 12:11:23;;;;;;;;;;;;;;;32.36;26.82;99163.09;5014647;28;6990;-76
2023/09/22 12:13:48;;;;;;;;;;;;;;;32.17;26.69;99159.84;5015128;28;6891;-78
2023/09/22 12:16:14;;;;;;;;;;;;;;;31.86;26.71;99165.22;5016544;28;6803;-76
2023/09/22 12:18:39;;;;;;;;;;;;;;;31.51;26.79;99154.94;5015307;28;10194;-75
2023/09/22 12:21:05;;;;;;;;;;;;;;;31.04;27.74;99154.94;5013462;28;7049;-78
2023/09/22 12:23:33;;;;;;;;;;;;;;;30.16;27.76;99155.31;5013762;28;6808;-76
2023/09/22 12:26:01;;;;;;;;;;;;;;;29.01;28.39;99166.31;5000020;28;7030;-78
2023/09/22 12:28:28;;;;;;;;;;;;;;;28.02;29.64;99171.63;5011259;28;6982;-79
2023/09/22 12:30:54;;;;;;;;;;;;;;;27.28;30.56;99164.16;5012404;28;6988;-79
2023/09/22 12:33:20;;;;;;;;;;;;;;;26.71;31.51;99156.72;5010269;23;6796;-76
2023/09/22 12:35:50;;;;;;;;;;;;;;;26.27;32.00;99157.50;4985093;28;7289;-76
2023/09/22 12:38:16;;;;;;;;;;;;;;;25.97;32.78;99159.41;4994542;28;6991;-75
2023/09/22 12:40:42;;;;;;;;;;;;;;;25.77;33.08;99153.97;5035294;23;7225;-76
2023/09/22 12:43:08;;;;;;;;;;;;;;;25.63;33.72;99162.31;4986075;28;7118;-75
2023/09/22 12:45:33;;;;;;;;;;;;;;;25.49;34.41;99160.13;4990249;28;6788;-75
2023/09/22 12:47:58;;;;;;;;;;;;;;;25.41;34.76;99156.06;4988672;28;6811;-75
2023/09/22 12:50:24;;;;;;;;;;;;;;;25.37;34.77;99156.16;4985858;28;6966;-76
2023/09/22 12:52:50;;;;;;;;;;;;;;;25.40;35.07;99152.56;4982947;28;6996;-75
2023/09/22 12:55:16;;;;;;;;;;;;;;;25.38;35.14;99154.41;4975602;28;6851;-75
2023/09/22 12:57:41;;;;;;;;;;;;;;;25.41;35.34;99141.16;4982670;28;7088;-74
2023/09/22 13:00:07;;;;;;;;;;;;;;;25.53;35.17;99137.31;4976910;28;6787;-75
2023/09/22 13:02:38;;;;;;;;;;;;;;;25.62;35.01;99136.13;4972530;28;6791;-75